Stations météo

réclame
Mon MeteoGroup
Ernage, Belgique (6459): Température de l'air & dewpoint: 11.02.2019 15:00:00 - 17.02.2019 15:00:00 (CET)Ernage, Belgique (6459): Vitesse du vent & gusts: 11.02.2019 15:00:00 - 17.02.2019 15:00:00 (CET)Ernage, Belgique (6459): Direction du vent: 11.02.2019 15:00:00 - 17.02.2019 15:00:00 (CET)Ernage, Belgique (6459): reduced air pressure: 11.02.2019 15:00:00 - 17.02.2019 15:00:00 (CET)Ernage, Belgique (6459): Ensoleillement: 11.02.2019 15:00:00 - 17.02.2019 15:00:00 (CET)Ernage, Belgique (6459): Quantités de précipitations: 11.02.2019 15:00:00 - 17.02.2019 15:00:00 (CET)
Date & Time tt [°C] td [°C] ff [km/h] ff [knt] fx [km/h] fx [knt] dd ppp [hPa] sd [min] rr [mm]
17.02.2019 15:00:00 - - - - - - - - - -
17.02.2019 14:00:00 15,2 0,2 22 12 34 18 S 1020,0 60 0,0
17.02.2019 13:00:00 14,0 1,1 18 10 27 14 S 1020,4 60 0,0
17.02.2019 12:00:00 11,8 1,9 18 10 28 15 S 1021,1 60 0,0
17.02.2019 11:00:00 9,6 1,7 16 9 22 12 SSE 1021,7 60 0,0
17.02.2019 10:00:00 7,7 1,7 17 9 27 15 SSE 1021,9 60 0,0
17.02.2019 09:00:00 5,2 1,0 12 7 16 9 SE 1022,1 37 0,0
17.02.2019 08:00:00 4,5 1,4 12 7 15 8 SE 1022,4 0 0,0
17.02.2019 07:00:00 3,1 0,5 11 6 14 8 SE 1022,6 0 0,0
17.02.2019 06:00:00 3,2 1,1 10 5 14 7 SE 1023,2 0 0,0
17.02.2019 05:00:00 3,1 1,3 7 4 11 6 SE 1023,6 0 0,0
17.02.2019 04:00:00 1,7 0,1 8 4 10 6 SE 1024,2 0 0,0
17.02.2019 03:00:00 3,1 0,6 4 2 7 4 SE 1024,4 0 0,0
17.02.2019 02:00:00 2,8 0,0 6 4 13 7 SE 1024,8 0 0,0
17.02.2019 01:00:00 5,0 0,7 7 4 14 8 SSE 1025,1 0 0,0
17.02.2019 00:00:00 3,3 0,6 6 4 11 6 SSE 1025,5 0 0,0
16.02.2019 23:00:00 5,4 0,9 7 4 11 6 S 1025,8 0 0,0
16.02.2019 22:00:00 6,6 2,0 8 4 11 6 S 1025,8 0 0,0
16.02.2019 21:00:00 5,9 1,3 8 5 11 6 SSE 1025,6 0 0,0
16.02.2019 20:00:00 7,5 1,8 6 4 10 6 S 1025,9 0 0,0
16.02.2019 19:00:00 9,6 1,4 4 2 9 5 SSE 1025,8 0 0,0
16.02.2019 18:00:00 12,6 2,6 7 4 9 5 SSW 1025,5 36 0,0
16.02.2019 17:00:00 14,1 3,2 7 4 11 6 SW 1025,8 60 0,0
16.02.2019 16:00:00 14,8 2,6 8 4 19 10 SW 1026,0 60 0,0
16.02.2019 15:00:00 14,7 1,9 14 8 18 10 WSW 1026,1 60 0,0
16.02.2019 14:00:00 13,7 2,1 13 7 20 11 SW 1026,5 60 0,0
16.02.2019 13:00:00 12,5 3,4 14 8 21 12 SW 1026,9 60 0,0
16.02.2019 12:00:00 11,0 3,2 10 5 20 11 SW 1027,3 60 0,0
16.02.2019 11:00:00 9,0 2,8 11 6 20 11 SSW 1027,2 60 0,0
16.02.2019 10:00:00 6,8 0,9 13 7 21 11 S 1027,3 60 0,0
16.02.2019 09:00:00 4,9 -0,1 10 5 14 8 S 1027,3 39 0,0
16.02.2019 08:00:00 4,4 -0,4 10 6 16 9 S 1026,9 0 0,0
16.02.2019 07:00:00 5,2 -0,3 14 8 19 11 S 1026,4 0 0,0
16.02.2019 06:00:00 5,2 -0,5 11 6 20 11 SSE 1026,4 0 0,0
16.02.2019 05:00:00 4,0 -0,5 13 7 18 10 SSE 1026,8 0 0,0
16.02.2019 04:00:00 2,0 -1,0 9 5 13 7 SSE 1027,1 0 0,0
16.02.2019 03:00:00 3,1 -0,8 6 3 10 5 SSE 1027,2 0 0,0
16.02.2019 02:00:00 3,2 -0,7 7 4 10 6 SSE 1027,5 0 0,0
16.02.2019 01:00:00 - - - - - - - - 0 -
16.02.2019 00:00:00 6,6 -0,4 8 4 16 9 SSE 1027,5 0 0,0
15.02.2019 23:00:00 8,2 0,0 14 7 20 11 SSE 1027,5 0 0,0
15.02.2019 22:00:00 7,3 0,2 14 8 18 10 SSE 1027,9 0 0,0
15.02.2019 21:00:00 5,5 0,8 8 4 13 7 SSE 1028,1 0 0,0
15.02.2019 20:00:00 8,2 0,6 6 3 9 5 S 1028,4 0 0,0
15.02.2019 19:00:00 9,1 0,7 4 2 6 3 SE 1028,2 0 0,0
15.02.2019 18:00:00 13,9 -0,3 6 3 13 7 S 1027,9 58 0,0
15.02.2019 17:00:00 15,3 1,5 10 6 18 10 SSE 1027,9 60 0,0
15.02.2019 16:00:00 16,1 1,7 13 7 19 10 SE 1028,5 60 0,0
15.02.2019 15:00:00 15,9 3,5 12 7 18 10 SSE 1029,2 60 0,0
15.02.2019 14:00:00 15,4 2,2 12 6 22 12 SSE 1030,2 60 0,0
15.02.2019 13:00:00 14,5 -0,5 14 8 22 12 SSE 1030,8 60 0,0
15.02.2019 12:00:00 12,7 0,7 14 8 21 11 SE 1031,4 60 0,0
15.02.2019 11:00:00 10,4 0,1 10 6 15 8 SE 1031,8 60 0,0
15.02.2019 10:00:00 7,1 -0,7 10 5 17 9 SE 1032,1 60 0,0
15.02.2019 09:00:00 4,7 -2,1 13 7 16 9 SE 1032,3 40 0,0
15.02.2019 08:00:00 4,3 -2,4 11 6 16 9 SE 1032,3 0 0,0
15.02.2019 07:00:00 2,7 -2,7 11 6 16 9 SE 1032,3 0 0,0
15.02.2019 06:00:00 4,6 -1,9 14 8 20 11 SE 1032,3 0 0,0
15.02.2019 05:00:00 4,3 -2,0 17 9 20 11 SE 1032,2 0 0,0
15.02.2019 04:00:00 4,0 -2,2 10 6 14 8 SE 1032,6 0 0,0
15.02.2019 03:00:00 2,1 -2,0 10 5 14 7 SE 1033,1 0 0,0
15.02.2019 02:00:00 3,4 -1,9 7 4 14 8 ESE 1033,3 0 0,0
15.02.2019 01:00:00 4,7 -2,0 11 6 14 8 SE 1033,4 0 0,0
15.02.2019 00:00:00 3,2 -1,4 10 5 14 7 SE 1033,6 0 0,0
14.02.2019 23:00:00 4,3 -0,6 8 4 13 7 SE 1033,7 0 0,0
14.02.2019 22:00:00 5,0 -0,2 9 5 14 8 SE 1033,7 0 0,0
14.02.2019 21:00:00 6,0 1,0 9 5 12 7 SE 1033,5 0 0,0
14.02.2019 20:00:00 6,1 1,9 5 3 9 5 ESE 1033,7 0 0,0
14.02.2019 19:00:00 8,5 2,8 7 4 9 5 E 1033,6 0 0,0
14.02.2019 18:00:00 10,4 2,2 5 3 9 5 ENE 1033,5 57 0,0
14.02.2019 17:00:00 12,5 3,5 7 4 13 7 E 1033,5 60 0,0
14.02.2019 16:00:00 13,0 2,0 11 6 13 7 ENE 1034,0 60 0,0
14.02.2019 15:00:00 13,0 0,3 10 5 16 9 E 1034,5 60 0,0
14.02.2019 14:00:00 12,5 0,1 8 4 17 9 ESE 1035,0 60 0,0
14.02.2019 13:00:00 11,9 0,2 11 6 15 8 SE 1035,7 60 0,0
14.02.2019 12:00:00 9,0 0,5 - - - - - 1036,2 40 -
14.02.2019 11:00:00 7,4 -0,3 8 4 13 7 SE 1036,2 60 0,0
14.02.2019 10:00:00 4,1 -0,3 6 4 11 6 SE 1036,6 60 0,0
14.02.2019 09:00:00 2,3 -0,6 7 4 10 6 SE 1036,8 41 0,0
14.02.2019 08:00:00 0,1 -2,0 6 3 9 5 SE 1036,6 0 0,0
14.02.2019 07:00:00 0,8 -1,8 7 4 11 6 SSE 1036,0 0 0,0
14.02.2019 06:00:00 2,1 -1,5 9 5 14 7 SSE 1035,9 0 0,0
14.02.2019 05:00:00 2,5 -1,6 11 6 15 8 SE 1035,9 0 0,0
14.02.2019 04:00:00 1,0 -2,3 9 5 12 7 SSE 1036,0 0 0,0
14.02.2019 03:00:00 0,2 -2,3 7 4 11 6 SE 1036,2 0 0,0
14.02.2019 02:00:00 2,2 -2,1 8 4 13 7 SSE 1036,1 0 0,0
14.02.2019 01:00:00 2,0 -1,6 11 6 12 6 SSE 1036,2 0 0,0
14.02.2019 00:00:00 1,6 0,4 7 4 11 6 SSE 1036,2 0 0,0
13.02.2019 23:00:00 0,3 -0,4 7 4 8 5 SSE 1036,5 0 0,0
13.02.2019 22:00:00 1,1 0,2 4 2 8 5 SSE 1036,6 0 0,0
13.02.2019 21:00:00 1,6 0,3 5 3 6 3 S 1036,6 0 0,0
13.02.2019 20:00:00 3,2 0,9 4 2 6 3 S 1036,7 0 0,0
13.02.2019 19:00:00 4,5 1,0 4 2 7 4 S 1036,5 0 0,0
13.02.2019 18:00:00 6,0 1,1 5 3 10 5 SW 1036,4 37 0,0
13.02.2019 17:00:00 7,0 1,7 8 4 14 8 SW 1036,4 60 0,0
13.02.2019 16:00:00 7,7 1,4 9 5 16 9 SSW 1036,2 60 0,0
13.02.2019 15:00:00 7,2 1,3 11 6 15 8 SSW 1036,5 60 0,0
13.02.2019 14:00:00 6,6 1,3 9 5 16 9 SW 1036,9 60 0,0
13.02.2019 13:00:00 5,8 0,9 12 6 18 10 SSW 1037,4 60 0,0
13.02.2019 12:00:00 4,7 1,1 14 8 23 12 SSW 1037,9 60 0,0
13.02.2019 11:00:00 3,5 0,6 11 6 16 9 S 1037,9 60 0,0
13.02.2019 10:00:00 1,5 0,1 12 6 17 9 S 1038,1 60 0,1
13.02.2019 09:00:00 0,3 -0,1 10 6 15 8 S 1038,0 38 0,0
13.02.2019 08:00:00 -0,1 -0,1 11 6 16 9 S 1037,7 0 0,0
13.02.2019 07:00:00 -0,5 -0,5 7 4 16 8 S 1037,4 0 0,0
13.02.2019 06:00:00 -0,4 -0,4 10 5 18 10 S 1037,6 0 0,0
13.02.2019 05:00:00 -0,1 -0,3 13 7 20 11 S 1037,6 0 0,0
13.02.2019 04:00:00 -0,2 -0,5 12 6 21 11 S 1037,8 0 0,0
13.02.2019 03:00:00 0,2 -0,3 9 5 14 8 S 1038,3 0 0,0
13.02.2019 02:00:00 0,5 0,0 9 5 14 8 S 1038,0 0 0,0
13.02.2019 01:00:00 1,1 0,4 11 6 17 9 S 1037,7 0 0,0
13.02.2019 00:00:00 1,5 0,6 9 5 16 8 S 1037,6 0 0,0
12.02.2019 23:00:00 1,8 0,8 10 5 16 9 S 1037,2 0 0,0
12.02.2019 22:00:00 2,2 0,8 11 6 16 9 S 1037,1 0 0,0
12.02.2019 21:00:00 2,7 1,0 11 6 18 10 S 1037,0 0 0,0
12.02.2019 20:00:00 3,7 1,3 13 7 21 11 S 1036,9 0 0,0
12.02.2019 19:00:00 4,4 1,4 11 6 16 9 S 1036,7 0 0,0
12.02.2019 18:00:00 5,4 1,7 11 6 19 10 SSW 1036,1 0 0,0
12.02.2019 17:00:00 6,0 1,7 14 8 24 13 WSW 1036,0 48 0,0
12.02.2019 16:00:00 6,8 1,8 16 9 27 14 SW 1035,8 60 0,0
12.02.2019 15:00:00 7,0 1,9 21 11 29 16 WSW 1035,6 58 0,0
12.02.2019 14:00:00 6,6 2,5 15 8 23 13 SW 1035,7 29 0,0
12.02.2019 13:00:00 4,6 4,6 15 8 21 12 SW 1036,4 49 0,0
12.02.2019 12:00:00 3,2 3,2 13 7 20 11 SSW 1036,5 9 0,0
12.02.2019 11:00:00 2,4 2,4 10 6 17 9 S 1036,1 0 0,0
12.02.2019 10:00:00 1,7 1,7 11 6 18 10 S 1036,3 0 0,0
12.02.2019 09:00:00 1,3 1,3 11 6 19 11 SSW 1035,7 0 0,0
12.02.2019 08:00:00 1,1 1,1 10 5 15 8 S 1035,0 0 0,0
12.02.2019 07:00:00 1,1 1,1 8 4 12 7 S 1034,9 0 0,1
12.02.2019 06:00:00 0,0 0,0 9 5 14 8 S 1034,8 0 0,0
12.02.2019 05:00:00 -0,3 -0,3 10 5 14 7 SSW 1034,9 0 0,0
12.02.2019 04:00:00 -0,4 -0,4 5 3 10 5 SW 1035,0 0 0,0
12.02.2019 03:00:00 0,1 0,1 7 4 13 7 WSW 1035,0 0 0,0
12.02.2019 02:00:00 0,2 0,2 7 4 14 8 SW 1034,5 0 0,0
12.02.2019 01:00:00 1,3 1,3 11 6 13 7 W 1034,3 0 0,0
12.02.2019 00:00:00 0,7 0,7 9 5 11 6 WSW 1033,3 0 0,0
11.02.2019 23:00:00 1,4 1,2 7 4 10 5 W 1032,6 0 0,0
11.02.2019 22:00:00 2,0 1,7 9 5 14 8 W 1031,9 0 0,0
11.02.2019 21:00:00 2,5 2,0 13 7 15 8 WNW 1031,4 0 0,0
11.02.2019 20:00:00 3,2 1,7 9 5 19 10 WNW 1030,3 0 0,0
11.02.2019 19:00:00 5,0 2,9 14 8 26 14 WNW 1029,3 0 0,0
11.02.2019 18:00:00 5,4 3,1 15 8 35 19 WNW 1028,1 0 0,0
11.02.2019 17:00:00 6,4 2,1 18 10 30 16 WNW 1026,9 21 0,0
11.02.2019 16:00:00 6,8 2,2 17 9 26 14 WNW 1025,4 22 0,0
11.02.2019 15:00:00 6,5 2,0 19 10 29 15 NW 1024,7 12 0,0

tt = Température de l'air
td = dewpoint
ff = Vitesse du vent
fx = gusts
dd = Direction du vent
ppp = reduced air pressure
sd = Ensoleillement
rr = Quantités de précipitations

stations d'obs. à proximité